Aviation Digital Data Service (ADDS)

Output produced by METARs form (1053 UTC 24 November 2017)
found at http://www.aviationweather.gov/adds/metars/
 
METAR text: RODN 240956Z AUTO 05008KT 10SM OVC140 17/11 A3025 RMK AO2 SLP251 T01670105
Conditions at: RODN (KADENA (USAFB-NA, JP) observed 0956 UTC 24 November 2017
Temperature: 16.7°C (62°F)
Dewpoint: 10.5°C (51°F) [RH = 67%]
Pressure (altimeter): 30.25 inches Hg (1024.5 mb)
[Sea-level pressure: 1025.1 mb]
Winds: from the NE (50 degrees) at 9 MPH (8 knots; 4.2 m/s)
Visibility: 10 or more miles (16+ km)
Ceiling: 14000 feet AGL
Clouds: overcast cloud deck at 14000 feet AGL
Weather: automated observation with no human augmentation;
there may or may not be significant weather present at this time

METAR text: ROTM 240959Z 05010KT 9999 SCT030 BKN050 17/11 A3026 RMK SLP234 STNPR29950 T01740110
Conditions at: ROTM (FUTENMA(US-MCAS), JP) observed 0959 UTC 24 November 2017
Temperature: 17.4°C (63°F)
Dewpoint: 11.0°C (52°F) [RH = 66%]
Pressure (altimeter): 30.26 inches Hg (1024.8 mb)
[Sea-level pressure: 1023.4 mb]
Winds: from the NE (50 degrees) at 12 MPH (10 knots; 5.2 m/s)
Visibility: 6 or more miles (10+ km)
Ceiling: 5000 feet AGL
Clouds: scattered clouds at 3000 feet AGL
broken clouds at 5000 feet AGL
Weather: no significant weather observed at this time

METAR text: ROAH 241030Z 04008KT 010V070 9999 FEW045 BKN140 19/08 Q1024 RMK 1SC045 6AC140 A3024
Conditions at: ROAH (NAHA (CIV/JASDF), JP) observed 1030 UTC 24 November 2017
Temperature: 19.0°C (66°F)
Dewpoint: 8.0°C (46°F) [RH = 49%]
Pressure (altimeter): 30.24 inches Hg (1024.0 mb)
Winds: from the NE (40 degrees) at 9 MPH (8 knots; 4.2 m/s)
Visibility: 6 or more miles (10+ km)
Ceiling: 14000 feet AGL
Clouds: few clouds at 4500 feet AGL
broken clouds at 14000 feet AGL
Weather: no significant weather observed at this time